createdAt,value
2022-08-28T00:01:37.344Z,101648.16
2022-08-28T00:04:04.317Z,101640.63
2022-08-28T00:06:30.776Z,101653.56
2022-08-28T00:08:57.388Z,101642.78
2022-08-28T00:11:24.068Z,101641.09
2022-08-28T00:13:50.932Z,101640.25
2022-08-28T00:16:18.813Z,101646.50
2022-08-28T00:18:47.039Z,101641.75
2022-08-28T00:21:14.585Z,101644.50
2022-08-28T00:23:42.952Z,101646.75
2022-08-28T00:26:10.701Z,101643.03
2022-08-28T00:28:37.199Z,101642.63
2022-08-28T00:31:05.198Z,101640.00
2022-08-28T00:33:33.758Z,101641.19
2022-08-28T00:36:01.056Z,101645.38
2022-08-28T00:38:28.434Z,101649.91
2022-08-28T00:40:59.289Z,101638.97
2022-08-28T00:43:39.959Z,101632.69
2022-08-28T00:46:16.405Z,101632.56
2022-08-28T00:48:43.276Z,101642.09
2022-08-28T00:51:28.763Z,101630.78
2022-08-28T00:53:58.967Z,101630.03
2022-08-28T00:56:26.904Z,101633.81
2022-08-28T00:58:56.194Z,101635.31
2022-08-28T01:01:22.721Z,101637.03
2022-08-28T01:03:49.141Z,101637.16
2022-08-28T01:06:17.162Z,101636.53
2022-08-28T01:08:46.200Z,101641.28
2022-08-28T01:11:18.688Z,101652.06
2022-08-28T01:13:48.651Z,101646.66
2022-08-28T01:16:19.382Z,101644.06
2022-08-28T01:18:46.422Z,101643.31
2022-08-28T01:21:26.078Z,101644.09
2022-08-28T01:23:58.706Z,101643.34
2022-08-28T01:26:27.775Z,101656.38
2022-08-28T01:28:55.260Z,101650.34
2022-08-28T01:31:21.807Z,101651.09
2022-08-28T01:33:48.771Z,101658.44
2022-08-28T01:36:15.737Z,101659.69
2022-08-28T01:38:44.028Z,101660.03
2022-08-28T01:41:12.207Z,101655.75
2022-08-28T01:43:39.043Z,101663.91
2022-08-28T01:46:05.875Z,101661.53
2022-08-28T01:48:35.915Z,101660.06
2022-08-28T01:51:03.289Z,101662.75
2022-08-28T01:53:33.066Z,101653.91
2022-08-28T01:56:01.708Z,101648.13
2022-08-28T01:58:28.871Z,101653.03
2022-08-28T02:00:57.442Z,101652.50
2022-08-28T02:03:24.332Z,101660.25
2022-08-28T02:05:50.958Z,101655.81
2022-08-28T02:08:18.237Z,101651.44
2022-08-28T02:10:45.072Z,101648.09
2022-08-28T02:13:12.103Z,101648.50
2022-08-28T02:15:39.986Z,101652.72
2022-08-28T02:18:06.795Z,101655.06
2022-08-28T02:20:33.969Z,101659.81
2022-08-28T02:23:01.050Z,101662.94
2022-08-28T02:25:28.314Z,101670.25
2022-08-28T02:27:55.179Z,101673.59
2022-08-28T02:30:21.890Z,101673.59
2022-08-28T02:32:48.323Z,101676.50
2022-08-28T02:35:16.874Z,101678.19
2022-08-28T02:37:44.455Z,101679.38
2022-08-28T02:40:16.555Z,101672.72
2022-08-28T02:42:43.190Z,101667.75
2022-08-28T02:45:11.890Z,101678.94
2022-08-28T02:47:44.000Z,101681.06
2022-08-28T02:50:13.932Z,101683.75
2022-08-28T02:52:41.777Z,101678.47
2022-08-28T02:55:10.885Z,101679.34
2022-08-28T02:57:37.417Z,101677.06
2022-08-28T03:00:13.656Z,101680.66
2022-08-28T03:02:41.271Z,101684.31
2022-08-28T03:05:09.405Z,101678.47
2022-08-28T03:07:35.902Z,101679.34
2022-08-28T03:10:03.382Z,101674.69
2022-08-28T03:12:29.864Z,101669.94
2022-08-28T03:14:57.019Z,101663.50
2022-08-28T03:17:23.571Z,101664.81
2022-08-28T03:19:50.303Z,101670.66
2022-08-28T03:22:17.946Z,101666.88
2022-08-28T03:24:44.995Z,101654.47
2022-08-28T03:27:11.703Z,101661.19
2022-08-28T03:29:38.390Z,101656.34
2022-08-28T03:32:05.065Z,101656.66
2022-08-28T03:34:31.506Z,101658.38
2022-08-28T03:36:58.175Z,101658.19
2022-08-28T03:39:24.622Z,101651.81
2022-08-28T03:41:51.490Z,101655.50
2022-08-28T03:44:17.953Z,101654.91
2022-08-28T03:46:44.382Z,101654.13
2022-08-28T03:49:11.234Z,101654.13
2022-08-28T03:51:38.362Z,101659.38
2022-08-28T03:54:05.217Z,101665.63
2022-08-28T03:56:31.737Z,101668.03
2022-08-28T03:59:00.880Z,101669.47
2022-08-28T04:01:28.054Z,101666.66
2022-08-28T04:03:54.668Z,101667.53
2022-08-28T04:06:21.242Z,101664.41
2022-08-28T04:08:47.851Z,101661.50
2022-08-28T04:11:14.493Z,101663.09
2022-08-28T04:13:41.927Z,101656.31
2022-08-28T04:16:11.597Z,101667.41
2022-08-28T04:18:40.287Z,101666.03
2022-08-28T04:21:10.154Z,101671.25
2022-08-28T04:23:38.195Z,101675.47
2022-08-28T04:26:08.741Z,101678.81
2022-08-28T04:28:35.481Z,101676.13
2022-08-28T04:31:02.859Z,101688.28
2022-08-28T04:33:29.719Z,101683.19
2022-08-28T04:35:56.537Z,101683.72
2022-08-28T04:38:23.288Z,101679.75
2022-08-28T04:40:49.782Z,101689.22
2022-08-28T04:43:16.214Z,101688.28
2022-08-28T04:45:44.416Z,101688.41
2022-08-28T04:48:13.578Z,101689.03
2022-08-28T04:50:45.804Z,101697.44
2022-08-28T04:53:12.609Z,101698.66
2022-08-28T04:55:54.676Z,101702.81
2022-08-28T04:58:23.830Z,101701.75
2022-08-28T05:00:52.057Z,101707.25
2022-08-28T05:03:18.528Z,101696.75
2022-08-28T05:05:47.136Z,101699.75
2022-08-28T05:08:15.510Z,101698.28
2022-08-28T05:10:42.506Z,101699.13
2022-08-28T05:13:10.710Z,101697.84
2022-08-28T05:15:41.025Z,101707.53
2022-08-28T05:18:07.697Z,101710.34
2022-08-28T05:20:38.497Z,101715.38
2022-08-28T05:23:06.274Z,101707.53
2022-08-28T05:25:41.877Z,101708.72
2022-08-28T05:28:12.044Z,101718.00
2022-08-28T05:30:40.299Z,101716.78
2022-08-28T05:33:08.003Z,101719.81
2022-08-28T05:35:37.454Z,101721.00
2022-08-28T05:38:04.653Z,101717.13
2022-08-28T05:40:31.287Z,101729.84
2022-08-28T05:42:58.010Z,101723.34
2022-08-28T05:45:24.611Z,101716.88
2022-08-28T05:47:52.126Z,101721.81
2022-08-28T05:50:18.947Z,101731.28
2022-08-28T05:52:45.398Z,101726.97
2022-08-28T05:55:13.177Z,101729.22
2022-08-28T05:57:40.509Z,101723.28
2022-08-28T06:00:10.175Z,101732.00
2022-08-28T06:02:36.605Z,101721.09
2022-08-28T06:05:03.324Z,101721.34
2022-08-28T06:07:29.965Z,101718.81
2022-08-28T06:09:56.984Z,101723.38
2022-08-28T06:12:23.658Z,101727.22
2022-08-28T06:14:50.112Z,101725.53
2022-08-28T06:17:16.899Z,101729.88
2022-08-28T06:19:49.946Z,101722.03
2022-08-28T06:22:16.384Z,101723.63
2022-08-28T06:24:42.877Z,101725.03
2022-08-28T06:27:09.394Z,101729.56
2022-08-28T06:29:35.810Z,101723.78
2022-08-28T06:32:04.783Z,101731.63
2022-08-28T06:34:31.457Z,101731.53
2022-08-28T06:36:57.950Z,101737.34
2022-08-28T06:39:24.428Z,101738.03
2022-08-28T06:41:51.031Z,101742.59
2022-08-28T06:44:22.458Z,101747.44
2022-08-28T06:46:51.124Z,101751.09
2022-08-28T06:49:17.739Z,101753.25
2022-08-28T06:51:44.190Z,101751.44
2022-08-28T06:54:10.747Z,101758.00
2022-08-28T06:56:37.286Z,101757.69
2022-08-28T06:59:05.089Z,101753.06
2022-08-28T07:01:34.833Z,101752.91
2022-08-28T07:04:07.377Z,101764.06
2022-08-28T07:06:36.947Z,101763.75
2022-08-28T07:09:05.897Z,101765.47
2022-08-28T07:11:33.805Z,101770.19
2022-08-28T07:14:01.168Z,101770.34
2022-08-28T07:16:30.554Z,101772.97
2022-08-28T07:18:57.969Z,101771.28
2022-08-28T07:21:24.915Z,101771.59
2022-08-28T07:23:51.416Z,101768.09
2022-08-28T07:26:22.938Z,101781.91
2022-08-28T07:28:50.501Z,101776.94
2022-08-28T07:31:20.208Z,101778.78
2022-08-28T07:33:46.982Z,101778.03
2022-08-28T07:36:29.400Z,101782.41
2022-08-28T07:38:57.989Z,101787.44
2022-08-28T07:41:30.052Z,101780.22
2022-08-28T07:44:15.692Z,101784.38
2022-08-28T07:46:42.447Z,101788.69
2022-08-28T07:49:09.410Z,101783.81
2022-08-28T07:51:36.366Z,101784.63
2022-08-28T07:54:04.272Z,101782.16
2022-08-28T07:56:31.686Z,101784.44
2022-08-28T07:58:59.039Z,101788.94
2022-08-28T08:01:27.155Z,101800.91
2022-08-28T08:03:55.908Z,101795.75
2022-08-28T08:06:33.837Z,101802.22
2022-08-28T08:09:01.718Z,101800.59
2022-08-28T08:11:28.164Z,101803.56
2022-08-28T08:14:03.818Z,101794.63
2022-08-28T08:16:34.929Z,101793.66
2022-08-28T08:19:01.904Z,101794.53
2022-08-28T08:21:30.502Z,101802.16
2022-08-28T08:23:58.041Z,101789.88
2022-08-28T08:26:26.109Z,101795.56
2022-08-28T08:28:52.584Z,101793.31
2022-08-28T08:31:27.408Z,101802.34
2022-08-28T08:33:56.820Z,101798.56
2022-08-28T08:36:25.097Z,101799.63
2022-08-28T08:38:59.147Z,101805.44
2022-08-28T08:41:51.124Z,101804.25
2022-08-28T08:44:28.008Z,101806.66
2022-08-28T08:47:14.834Z,101811.81
2022-08-28T08:50:03.338Z,101802.03
2022-08-28T08:52:32.857Z,101817.06
2022-08-28T08:55:15.716Z,101808.31
2022-08-28T08:57:42.841Z,101826.44
2022-08-28T09:00:16.321Z,101804.59
2022-08-28T09:03:07.545Z,101800.84
2022-08-28T09:05:52.375Z,101803.56
2022-08-28T09:08:27.835Z,101799.41
2022-08-28T09:11:04.588Z,101802.47
2022-08-28T09:14:07.818Z,101809.63
2022-08-28T09:16:40.092Z,101804.22
2022-08-28T09:19:07.433Z,101803.91
2022-08-28T09:21:35.830Z,101814.03
2022-08-28T09:24:05.841Z,101815.06
2022-08-28T09:26:37.647Z,101813.13
2022-08-28T09:29:07.543Z,101810.94
2022-08-28T09:31:37.307Z,101806.88
2022-08-28T09:34:19.396Z,101823.16
2022-08-28T09:36:46.047Z,101814.41
2022-08-28T09:39:19.888Z,101831.75
2022-08-28T09:42:10.071Z,101825.19
2022-08-28T09:44:56.330Z,101849.00
2022-08-28T09:47:57.631Z,101840.13
2022-08-28T09:51:03.270Z,101834.88
2022-08-28T09:53:32.231Z,101827.66
2022-08-28T09:56:03.274Z,101835.22
2022-08-28T09:58:37.357Z,101830.94
2022-08-28T10:01:33.011Z,101833.34
2022-08-28T10:04:28.428Z,101826.41
2022-08-28T10:06:57.126Z,101824.06
2022-08-28T10:10:02.392Z,101829.56
2022-08-28T10:12:46.687Z,101836.06
2022-08-28T10:15:22.754Z,101832.28
2022-08-28T10:18:11.071Z,101824.75
2022-08-28T10:20:37.486Z,101834.31
2022-08-28T10:23:17.040Z,101831.06
2022-08-28T10:25:50.806Z,101840.47
2022-08-28T10:28:42.908Z,101836.88
2022-08-28T10:31:33.013Z,101835.38
2022-08-28T10:34:14.360Z,101838.25
2022-08-28T10:36:41.970Z,101839.47
2022-08-28T10:39:29.447Z,101850.22
2022-08-28T10:41:59.646Z,101840.66
2022-08-28T10:45:03.534Z,101848.03
2022-08-28T10:47:32.950Z,101852.88
2022-08-28T10:50:03.134Z,101846.97
2022-08-28T10:52:38.984Z,101844.28
2022-08-28T10:55:13.848Z,101842.44
2022-08-28T10:57:53.892Z,101842.03
2022-08-28T11:00:22.237Z,101850.06
2022-08-28T11:02:51.804Z,101846.28
2022-08-28T11:05:31.923Z,101840.63
2022-08-28T11:08:07.509Z,101842.31
2022-08-28T11:10:34.901Z,101846.03
2022-08-28T11:13:02.894Z,101852.44
2022-08-28T11:15:36.417Z,101858.44
2022-08-28T11:18:25.659Z,101859.00
2022-08-28T11:21:24.817Z,101854.28
2022-08-28T11:24:04.250Z,101856.38
2022-08-28T11:26:41.062Z,101853.41
2022-08-28T11:29:08.053Z,101865.44
2022-08-28T11:31:38.251Z,101849.63
2022-08-28T11:34:05.613Z,101851.94
2022-08-28T11:36:32.570Z,101857.97
2022-08-28T11:39:00.952Z,101856.44
2022-08-28T11:41:36.389Z,101874.78
2022-08-28T11:44:14.989Z,101867.41
2022-08-28T11:46:43.380Z,101854.72
2022-08-28T11:49:31.556Z,101865.19
2022-08-28T11:52:22.837Z,101853.75
2022-08-28T11:55:01.937Z,101858.16
2022-08-28T11:57:48.803Z,101858.66
2022-08-28T12:00:36.517Z,101859.47
2022-08-28T12:03:34.797Z,101860.69
2022-08-28T12:06:01.549Z,101874.84
2022-08-28T12:08:59.175Z,101870.50
2022-08-28T12:11:48.370Z,101851.53
2022-08-28T12:14:30.010Z,101877.03
2022-08-28T12:16:59.374Z,101864.28
2022-08-28T12:19:55.334Z,101865.81
2022-08-28T12:22:27.106Z,101869.44
2022-08-28T12:24:59.641Z,101865.06
2022-08-28T12:27:26.455Z,101866.63
2022-08-28T12:30:00.457Z,101863.38
2022-08-28T12:32:46.676Z,101866.41
2022-08-28T12:35:19.633Z,101862.41
2022-08-28T12:38:00.069Z,101855.66
2022-08-28T12:40:28.874Z,101864.75
2022-08-28T12:43:04.817Z,101850.13
2022-08-28T12:45:31.168Z,101860.28
2022-08-28T12:48:00.370Z,101849.66
2022-08-28T12:50:30.093Z,101853.91
2022-08-28T12:53:00.124Z,101848.53
2022-08-28T12:55:26.888Z,101855.50
2022-08-28T12:57:53.732Z,101848.94
2022-08-28T13:00:26.149Z,101857.13
2022-08-28T13:02:54.609Z,101863.31
2022-08-28T13:05:30.059Z,101856.03
2022-08-28T13:07:57.578Z,101859.91
2022-08-28T13:10:36.364Z,101859.19
2022-08-28T13:13:05.783Z,101852.44
2022-08-28T13:16:08.942Z,101853.06
2022-08-28T13:18:52.655Z,101844.78
2022-08-28T13:21:32.918Z,101846.63
2022-08-28T13:24:23.574Z,101845.22
2022-08-28T13:27:15.749Z,101847.41
2022-08-28T13:29:59.779Z,101848.78
2022-08-28T13:32:28.931Z,101842.34
2022-08-28T13:35:10.667Z,101848.16
2022-08-28T13:37:49.120Z,101840.13
2022-08-28T13:40:45.995Z,101840.91
2022-08-28T13:43:08.194Z,101843.91
2022-08-28T13:45:43.528Z,101855.25
2022-08-28T13:48:18.083Z,101856.91
2022-08-28T13:50:47.361Z,101870.44
2022-08-28T13:53:15.410Z,101855.31
2022-08-28T13:55:41.887Z,101848.13
2022-08-28T13:58:08.396Z,101853.97
2022-08-28T14:00:37.136Z,101853.22
2022-08-28T14:03:22.215Z,101854.94
2022-08-28T14:05:48.621Z,101840.72
2022-08-28T14:08:15.057Z,101842.53
2022-08-28T14:10:42.056Z,101841.00
2022-08-28T14:13:08.593Z,101840.34
2022-08-28T14:15:35.324Z,101843.47
2022-08-28T14:18:01.785Z,101828.81
2022-08-28T14:20:28.960Z,101832.81
2022-08-28T14:22:55.516Z,101826.22
2022-08-28T14:25:21.973Z,101826.75
2022-08-28T14:27:48.649Z,101843.47
2022-08-28T14:30:15.340Z,101838.47
2022-08-28T14:32:41.849Z,101833.81
2022-08-28T14:35:08.853Z,101834.00
2022-08-28T14:37:35.413Z,101835.31
2022-08-28T14:40:02.015Z,101835.72
2022-08-28T14:42:28.641Z,101837.78
2022-08-28T14:44:55.158Z,101840.81
2022-08-28T14:47:21.653Z,101858.34
2022-08-28T14:49:48.488Z,101846.72
2022-08-28T14:52:15.128Z,101842.75
2022-08-28T14:54:41.701Z,101835.31
2022-08-28T14:57:08.250Z,101839.19
2022-08-28T14:59:34.714Z,101832.56
2022-08-28T15:02:02.176Z,101840.84
2022-08-28T15:04:34.501Z,101847.09
2022-08-28T15:07:02.725Z,101840.59
2022-08-28T15:09:29.310Z,101827.28
2022-08-28T15:11:56.115Z,101825.22
2022-08-28T15:14:22.653Z,101825.75
2022-08-28T15:16:49.484Z,101823.25
2022-08-28T15:19:17.979Z,101838.13
2022-08-28T15:21:50.165Z,101835.28
2022-08-28T15:24:18.304Z,101846.69
2022-08-28T15:26:44.973Z,101839.19
2022-08-28T15:29:12.038Z,101838.75
2022-08-28T15:31:42.264Z,101830.88
2022-08-28T15:34:13.648Z,101836.03
2022-08-28T15:36:41.279Z,101831.09
2022-08-28T15:39:27.339Z,101840.50
2022-08-28T15:41:54.520Z,101837.53
2022-08-28T15:44:21.009Z,101831.97
2022-08-28T15:46:51.723Z,101851.03
2022-08-28T15:49:20.469Z,101849.13
2022-08-28T15:51:50.407Z,101849.25
2022-08-28T15:54:17.455Z,101843.81
2022-08-28T15:56:44.117Z,101844.28
2022-08-28T15:59:11.232Z,101847.88
2022-08-28T16:01:38.479Z,101858.69
2022-08-28T16:04:06.565Z,101844.22
2022-08-28T16:06:35.168Z,101851.03
2022-08-28T16:09:02.128Z,101851.53
2022-08-28T16:11:28.551Z,101843.44
2022-08-28T16:14:00.526Z,101852.13
2022-08-28T16:16:27.466Z,101851.31
2022-08-28T16:18:55.116Z,101853.38
2022-08-28T16:21:21.720Z,101851.78
2022-08-28T16:23:48.886Z,101850.72
2022-08-28T16:26:15.885Z,101862.34
2022-08-28T16:28:43.674Z,101852.22
2022-08-28T16:31:18.884Z,101851.50
2022-08-28T16:33:48.112Z,101856.56
2022-08-28T16:36:14.934Z,101872.41
2022-08-28T16:38:43.107Z,101869.88
2022-08-28T16:41:22.015Z,101860.13
2022-08-28T16:43:49.224Z,101859.16
2022-08-28T16:46:19.273Z,101870.06
2022-08-28T16:48:46.466Z,101868.00
2022-08-28T16:51:13.549Z,101863.09
2022-08-28T16:53:42.985Z,101869.50
2022-08-28T16:56:14.127Z,101868.66
2022-08-28T16:58:41.515Z,101872.94
2022-08-28T17:01:08.615Z,101876.41
2022-08-28T17:03:38.021Z,101864.63
2022-08-28T17:06:13.891Z,101870.22
2022-08-28T17:08:40.543Z,101864.78
2022-08-28T17:11:07.514Z,101871.97
2022-08-28T17:13:34.935Z,101863.63
2022-08-28T17:16:02.514Z,101870.03
2022-08-28T17:18:29.289Z,101870.09
2022-08-28T17:21:14.276Z,101860.69
2022-08-28T17:23:41.227Z,101875.25
2022-08-28T17:26:08.125Z,101865.78
2022-08-28T17:28:35.157Z,101861.91
2022-08-28T17:31:01.665Z,101870.97
2022-08-28T17:33:28.572Z,101865.06
2022-08-28T17:35:55.686Z,101871.44
2022-08-28T17:38:22.272Z,101866.72
2022-08-28T17:40:48.726Z,101884.13
2022-08-28T17:43:15.226Z,101874.56
2022-08-28T17:45:41.671Z,101872.13
2022-08-28T17:48:08.311Z,101875.72
2022-08-28T17:50:34.752Z,101866.13
2022-08-28T17:53:01.225Z,101864.97
2022-08-28T17:55:27.685Z,101863.13
2022-08-28T17:57:55.000Z,101859.16
2022-08-28T18:00:21.620Z,101867.50
2022-08-28T18:02:51.475Z,101864.34
2022-08-28T18:05:18.572Z,101861.50
2022-08-28T18:07:45.058Z,101865.91
2022-08-28T18:10:11.954Z,101862.91
2022-08-28T18:12:39.994Z,101858.22
2022-08-28T18:15:09.238Z,101866.13
2022-08-28T18:17:37.821Z,101865.41
2022-08-28T18:20:05.996Z,101864.16
2022-08-28T18:22:32.421Z,101872.44
2022-08-28T18:24:58.941Z,101870.59
2022-08-28T18:27:27.797Z,101878.47
2022-08-28T18:29:54.270Z,101875.16
2022-08-28T18:32:20.831Z,101879.03
2022-08-28T18:34:47.322Z,101884.13
2022-08-28T18:37:13.756Z,101883.53
2022-08-28T18:39:40.286Z,101891.75
2022-08-28T18:42:09.473Z,101887.28
2022-08-28T18:44:35.926Z,101895.66
2022-08-28T18:47:02.357Z,101893.25
2022-08-28T18:49:28.812Z,101899.53
2022-08-28T18:51:55.416Z,101888.69
2022-08-28T18:54:23.010Z,101885.72
2022-08-28T18:56:50.424Z,101896.56
2022-08-28T18:59:17.389Z,101905.63
2022-08-28T19:01:44.032Z,101897.50
2022-08-28T19:04:10.578Z,101900.66
2022-08-28T19:06:37.068Z,101911.03
2022-08-28T19:09:05.604Z,101913.31
2022-08-28T19:11:32.221Z,101907.47
2022-08-28T19:13:59.520Z,101918.59
2022-08-28T19:16:31.826Z,101916.63
2022-08-28T19:18:58.352Z,101917.53
2022-08-28T19:21:24.829Z,101919.16
2022-08-28T19:23:55.758Z,101927.28
2022-08-28T19:26:28.887Z,101922.75
2022-08-28T19:28:55.858Z,101914.03
2022-08-28T19:31:23.050Z,101907.50
2022-08-28T19:33:49.610Z,101916.22
2022-08-28T19:36:16.254Z,101926.31
2022-08-28T19:38:43.217Z,101916.06
2022-08-28T19:41:11.069Z,101924.53
2022-08-28T19:43:42.863Z,101923.28
2022-08-28T19:46:14.467Z,101935.03
2022-08-28T19:48:47.754Z,101937.03
2022-08-28T19:51:17.286Z,101937.47
2022-08-28T19:53:44.357Z,101934.75
2022-08-28T19:56:10.818Z,101942.72
2022-08-28T19:58:37.332Z,101941.59
2022-08-28T20:01:04.228Z,101940.25
2022-08-28T20:03:30.913Z,101939.00
2022-08-28T20:05:57.517Z,101942.31
2022-08-28T20:08:24.130Z,101936.94
2022-08-28T20:10:50.698Z,101937.22
2022-08-28T20:13:17.480Z,101942.59
2022-08-28T20:15:45.639Z,101939.59
2022-08-28T20:18:13.066Z,101931.53
2022-08-28T20:20:39.965Z,101933.31
2022-08-28T20:23:07.302Z,101938.13
2022-08-28T20:25:34.843Z,101936.63
2022-08-28T20:28:02.016Z,101927.44
2022-08-28T20:30:28.798Z,101930.31
2022-08-28T20:32:55.249Z,101942.63
2022-08-28T20:35:22.172Z,101934.16
2022-08-28T20:37:51.051Z,101933.59
2022-08-28T20:40:19.620Z,101936.28
2022-08-28T20:42:46.521Z,101935.97
2022-08-28T20:45:14.827Z,101933.56
2022-08-28T20:47:41.256Z,101931.47
2022-08-28T20:50:07.961Z,101930.13
2022-08-28T20:52:34.485Z,101921.28
2022-08-28T20:55:00.950Z,101927.94
2022-08-28T20:57:27.419Z,101918.28
2022-08-28T20:59:54.265Z,101922.78
2022-08-28T21:02:23.774Z,101925.16
2022-08-28T21:04:51.118Z,101933.00
2022-08-28T21:07:19.391Z,101932.69
2022-08-28T21:10:07.258Z,101946.53
2022-08-28T21:12:32.325Z,101956.69
2022-08-28T21:14:58.819Z,101953.66
2022-08-28T21:17:29.495Z,101955.94
2022-08-28T21:20:00.756Z,101946.50
2022-08-28T21:22:27.250Z,101945.91
2022-08-28T21:24:53.916Z,101945.28
2022-08-28T21:27:20.354Z,101946.81
2022-08-28T21:29:47.795Z,101945.59
2022-08-28T21:32:14.408Z,101954.28
2022-08-28T21:34:40.888Z,101949.13
2022-08-28T21:37:07.360Z,101944.78
2022-08-28T21:39:34.883Z,101950.94
2022-08-28T21:42:01.354Z,101947.63
2022-08-28T21:44:27.908Z,101954.81
2022-08-28T21:46:54.399Z,101952.31
2022-08-28T21:49:22.652Z,101952.78
2022-08-28T21:51:49.336Z,101950.19
2022-08-28T21:54:15.880Z,101956.22
2022-08-28T21:56:42.448Z,101954.81
2022-08-28T21:59:09.075Z,101955.59
2022-08-28T22:01:35.613Z,101959.22
2022-08-28T22:04:02.341Z,101956.97
2022-08-28T22:06:28.780Z,101952.03
2022-08-28T22:08:56.248Z,101948.88
2022-08-28T22:11:24.779Z,101956.56
2022-08-28T22:13:52.222Z,101958.25
2022-08-28T22:16:19.318Z,101952.69
2022-08-28T22:18:45.984Z,101955.06
2022-08-28T22:21:33.076Z,101956.47
2022-08-28T22:23:59.827Z,101961.56
2022-08-28T22:26:26.795Z,101956.47
2022-08-28T22:28:53.553Z,101951.06
2022-08-28T22:31:20.022Z,101950.47
2022-08-28T22:33:46.485Z,101953.75
2022-08-28T22:36:13.356Z,101950.75
2022-08-28T22:38:40.008Z,101946.66
2022-08-28T22:41:06.873Z,101942.19
2022-08-28T22:43:33.407Z,101954.06
2022-08-28T22:46:00.100Z,101954.66
2022-08-28T22:48:26.962Z,101959.31
2022-08-28T22:51:08.400Z,101960.34
2022-08-28T22:53:35.826Z,101954.78
2022-08-28T22:56:02.542Z,101950.22
2022-08-28T22:58:31.093Z,101949.94
2022-08-28T23:00:59.244Z,101951.31
2022-08-28T23:03:25.810Z,101949.94
2022-08-28T23:05:52.373Z,101946.81
2022-08-28T23:08:19.194Z,101946.53
2022-08-28T23:10:58.397Z,101947.13
2022-08-28T23:13:25.594Z,101940.94
2022-08-28T23:15:52.053Z,101947.13
2022-08-28T23:18:18.549Z,101947.44
2022-08-28T23:20:45.176Z,101947.13
2022-08-28T23:23:12.001Z,101939.94
2022-08-28T23:25:38.561Z,101939.19
2022-08-28T23:28:06.606Z,101943.03
2022-08-28T23:30:33.301Z,101935.41
2022-08-28T23:32:59.768Z,101947.97
2022-08-28T23:35:26.297Z,101945.13
2022-08-28T23:37:52.800Z,101945.00
2022-08-28T23:40:21.830Z,101941.56
2022-08-28T23:42:48.900Z,101942.28
2022-08-28T23:45:17.205Z,101941.25
2022-08-28T23:47:44.348Z,101940.59
2022-08-28T23:50:15.015Z,101933.38
2022-08-28T23:52:41.764Z,101922.38
2022-08-28T23:55:10.394Z,101919.84
2022-08-28T23:57:36.888Z,101928.72
